sensor_id;sensor_type;location;lat;lon;timestamp;P1;durP1;ratioP1;P2;durP2;ratioP2
59930;SDS011;45790;51.538;6.736;2023-04-03T00:00:57;11.18;;;5.18;;
59930;SDS011;45790;51.538;6.736;2023-04-03T00:03:23;7.25;;;4.32;;
59930;SDS011;45790;51.538;6.736;2023-04-03T00:05:48;8.93;;;4.65;;
59930;SDS011;45790;51.538;6.736;2023-04-03T00:08:13;8.73;;;4.30;;
59930;SDS011;45790;51.538;6.736;2023-04-03T00:10:39;10.13;;;4.55;;
59930;SDS011;45790;51.538;6.736;2023-04-03T00:13:05;10.15;;;3.92;;
59930;SDS011;45790;51.538;6.736;2023-04-03T00:15:30;6.38;;;3.85;;
59930;SDS011;45790;51.538;6.736;2023-04-03T00:17:56;6.80;;;3.22;;
59930;SDS011;45790;51.538;6.736;2023-04-03T00:20:21;5.10;;;3.03;;
59930;SDS011;45790;51.538;6.736;2023-04-03T00:22:46;6.60;;;2.97;;
59930;SDS011;45790;51.538;6.736;2023-04-03T00:25:12;6.15;;;2.97;;
59930;SDS011;45790;51.538;6.736;2023-04-03T00:27:37;6.13;;;3.33;;
59930;SDS011;45790;51.538;6.736;2023-04-03T00:30:05;4.80;;;2.58;;
59930;SDS011;45790;51.538;6.736;2023-04-03T00:32:30;6.00;;;2.70;;
59930;SDS011;45790;51.538;6.736;2023-04-03T00:34:58;7.50;;;3.10;;
59930;SDS011;45790;51.538;6.736;2023-04-03T00:37:23;6.15;;;3.17;;
59930;SDS011;45790;51.538;6.736;2023-04-03T00:39:49;6.30;;;4.03;;
59930;SDS011;45790;51.538;6.736;2023-04-03T00:42:14;6.35;;;3.35;;
59930;SDS011;45790;51.538;6.736;2023-04-03T00:47:05;6.18;;;3.20;;
59930;SDS011;45790;51.538;6.736;2023-04-03T00:49:31;6.40;;;3.20;;
59930;SDS011;45790;51.538;6.736;2023-04-03T00:51:57;5.72;;;2.92;;
59930;SDS011;45790;51.538;6.736;2023-04-03T00:54:23;10.85;;;4.18;;
59930;SDS011;45790;51.538;6.736;2023-04-03T00:56:49;9.90;;;4.03;;
59930;SDS011;45790;51.538;6.736;2023-04-03T00:59:16;8.18;;;3.70;;
59930;SDS011;45790;51.538;6.736;2023-04-03T01:01:43;6.60;;;3.28;;
59930;SDS011;45790;51.538;6.736;2023-04-03T01:04:26;11.00;;;2.97;;
59930;SDS011;45790;51.538;6.736;2023-04-03T01:06:51;4.85;;;2.85;;
59930;SDS011;45790;51.538;6.736;2023-04-03T01:09:17;7.47;;;3.00;;
59930;SDS011;45790;51.538;6.736;2023-04-03T01:11:42;5.32;;;3.25;;
59930;SDS011;45790;51.538;6.736;2023-04-03T01:14:07;5.47;;;2.80;;
59930;SDS011;45790;51.538;6.736;2023-04-03T01:16:32;6.53;;;2.85;;
59930;SDS011;45790;51.538;6.736;2023-04-03T01:18:58;9.25;;;3.55;;
59930;SDS011;45790;51.538;6.736;2023-04-03T01:26:56;3.85;;;2.38;;
59930;SDS011;45790;51.538;6.736;2023-04-03T01:29:22;6.32;;;3.10;;
59930;SDS011;45790;51.538;6.736;2023-04-03T01:31:57;5.57;;;2.90;;
59930;SDS011;45790;51.538;6.736;2023-04-03T01:34:23;6.10;;;3.10;;
59930;SDS011;45790;51.538;6.736;2023-04-03T01:36:49;6.93;;;3.33;;
59930;SDS011;45790;51.538;6.736;2023-04-03T01:39:14;5.68;;;3.10;;
59930;SDS011;45790;51.538;6.736;2023-04-03T01:41:39;5.35;;;3.20;;
59930;SDS011;45790;51.538;6.736;2023-04-03T01:44:04;6.63;;;2.97;;
59930;SDS011;45790;51.538;6.736;2023-04-03T01:46:30;5.68;;;2.70;;
59930;SDS011;45790;51.538;6.736;2023-04-03T01:48:55;6.15;;;2.88;;
59930;SDS011;45790;51.538;6.736;2023-04-03T01:51:21;6.88;;;3.00;;
59930;SDS011;45790;51.538;6.736;2023-04-03T01:53:46;5.32;;;2.90;;
59930;SDS011;45790;51.538;6.736;2023-04-03T01:56:11;5.63;;;2.65;;
59930;SDS011;45790;51.538;6.736;2023-04-03T01:58:36;6.03;;;2.55;;
59930;SDS011;45790;51.538;6.736;2023-04-03T02:01:01;7.15;;;2.80;;
59930;SDS011;45790;51.538;6.736;2023-04-03T02:03:27;5.80;;;3.03;;
59930;SDS011;45790;51.538;6.736;2023-04-03T02:05:52;6.05;;;2.60;;
59930;SDS011;45790;51.538;6.736;2023-04-03T02:08:17;7.05;;;3.13;;
59930;SDS011;45790;51.538;6.736;2023-04-03T02:10:49;7.18;;;2.33;;
59930;SDS011;45790;51.538;6.736;2023-04-03T02:13:15;5.43;;;2.50;;
59930;SDS011;45790;51.538;6.736;2023-04-03T02:15:40;6.28;;;2.75;;
59930;SDS011;45790;51.538;6.736;2023-04-03T02:18:06;6.40;;;2.35;;
59930;SDS011;45790;51.538;6.736;2023-04-03T02:20:31;9.90;;;2.80;;
59930;SDS011;45790;51.538;6.736;2023-04-03T02:22:56;6.85;;;2.10;;
59930;SDS011;45790;51.538;6.736;2023-04-03T02:25:21;5.88;;;1.85;;
59930;SDS011;45790;51.538;6.736;2023-04-03T02:27:47;7.95;;;2.40;;
59930;SDS011;45790;51.538;6.736;2023-04-03T02:30:12;5.82;;;2.35;;
59930;SDS011;45790;51.538;6.736;2023-04-03T02:32:39;4.88;;;2.45;;
59930;SDS011;45790;51.538;6.736;2023-04-03T02:35:05;7.63;;;2.15;;
59930;SDS011;45790;51.538;6.736;2023-04-03T02:37:31;6.15;;;2.30;;
59930;SDS011;45790;51.538;6.736;2023-04-03T02:39:56;6.80;;;2.13;;
59930;SDS011;45790;51.538;6.736;2023-04-03T02:42:24;7.13;;;2.08;;
59930;SDS011;45790;51.538;6.736;2023-04-03T02:44:49;3.92;;;2.00;;
59930;SDS011;45790;51.538;6.736;2023-04-03T02:47:14;7.50;;;2.40;;
59930;SDS011;45790;51.538;6.736;2023-04-03T02:49:39;8.27;;;2.38;;
59930;SDS011;45790;51.538;6.736;2023-04-03T02:52:05;5.75;;;1.92;;
59930;SDS011;45790;51.538;6.736;2023-04-03T02:54:30;6.32;;;1.60;;
59930;SDS011;45790;51.538;6.736;2023-04-03T02:56:56;4.65;;;1.88;;
59930;SDS011;45790;51.538;6.736;2023-04-03T02:59:21;6.15;;;1.77;;
59930;SDS011;45790;51.538;6.736;2023-04-03T03:01:46;4.40;;;1.70;;
59930;SDS011;45790;51.538;6.736;2023-04-03T03:04:11;3.38;;;1.45;;
59930;SDS011;45790;51.538;6.736;2023-04-03T03:06:36;5.43;;;1.60;;
59930;SDS011;45790;51.538;6.736;2023-04-03T03:09:02;5.20;;;2.22;;
59930;SDS011;45790;51.538;6.736;2023-04-03T03:11:28;4.57;;;1.58;;
59930;SDS011;45790;51.538;6.736;2023-04-03T03:13:53;6.13;;;1.73;;
59930;SDS011;45790;51.538;6.736;2023-04-03T03:16:18;5.45;;;1.80;;
59930;SDS011;45790;51.538;6.736;2023-04-03T03:18:44;4.43;;;1.50;;
59930;SDS011;45790;51.538;6.736;2023-04-03T03:21:09;5.20;;;1.63;;
59930;SDS011;45790;51.538;6.736;2023-04-03T03:23:35;4.40;;;1.65;;
59930;SDS011;45790;51.538;6.736;2023-04-03T03:26:04;5.72;;;1.50;;
59930;SDS011;45790;51.538;6.736;2023-04-03T03:28:29;8.60;;;1.95;;
59930;SDS011;45790;51.538;6.736;2023-04-03T03:30:55;4.53;;;1.63;;
59930;SDS011;45790;51.538;6.736;2023-04-03T03:33:21;5.43;;;1.60;;
59930;SDS011;45790;51.538;6.736;2023-04-03T03:35:46;6.97;;;2.08;;
59930;SDS011;45790;51.538;6.736;2023-04-03T03:38:12;12.55;;;2.15;;
59930;SDS011;45790;51.538;6.736;2023-04-03T03:40:37;6.35;;;1.70;;
59930;SDS011;45790;51.538;6.736;2023-04-03T03:43:02;5.03;;;1.60;;
59930;SDS011;45790;51.538;6.736;2023-04-03T03:45:27;5.53;;;1.52;;
59930;SDS011;45790;51.538;6.736;2023-04-03T03:47:52;6.97;;;1.60;;
59930;SDS011;45790;51.538;6.736;2023-04-03T03:50:18;4.32;;;1.33;;
59930;SDS011;45790;51.538;6.736;2023-04-03T03:52:43;9.02;;;1.90;;
59930;SDS011;45790;51.538;6.736;2023-04-03T03:55:08;7.15;;;1.80;;
59930;SDS011;45790;51.538;6.736;2023-04-03T03:57:33;7.10;;;1.50;;
59930;SDS011;45790;51.538;6.736;2023-04-03T03:59:59;6.32;;;1.70;;
59930;SDS011;45790;51.538;6.736;2023-04-03T04:02:24;3.95;;;1.42;;
59930;SDS011;45790;51.538;6.736;2023-04-03T04:04:49;4.90;;;1.73;;
59930;SDS011;45790;51.538;6.736;2023-04-03T04:07:15;7.35;;;1.60;;
59930;SDS011;45790;51.538;6.736;2023-04-03T04:09:40;3.53;;;1.90;;
59930;SDS011;45790;51.538;6.736;2023-04-03T04:12:05;6.90;;;1.80;;
59930;SDS011;45790;51.538;6.736;2023-04-03T04:14:33;4.68;;;1.33;;
59930;SDS011;45790;51.538;6.736;2023-04-03T04:16:58;4.35;;;1.50;;
59930;SDS011;45790;51.538;6.736;2023-04-03T04:19:23;6.65;;;1.60;;
59930;SDS011;45790;51.538;6.736;2023-04-03T04:21:49;5.18;;;1.75;;
59930;SDS011;45790;51.538;6.736;2023-04-03T04:24:14;6.00;;;1.58;;
59930;SDS011;45790;51.538;6.736;2023-04-03T04:26:39;6.82;;;1.80;;
59930;SDS011;45790;51.538;6.736;2023-04-03T04:29:05;4.93;;;1.80;;
59930;SDS011;45790;51.538;6.736;2023-04-03T04:31:30;5.60;;;1.90;;
59930;SDS011;45790;51.538;6.736;2023-04-03T04:33:55;5.28;;;1.60;;
59930;SDS011;45790;51.538;6.736;2023-04-03T04:36:20;5.60;;;1.70;;
59930;SDS011;45790;51.538;6.736;2023-04-03T04:38:46;5.80;;;1.65;;
59930;SDS011;45790;51.538;6.736;2023-04-03T04:41:11;4.10;;;1.40;;
59930;SDS011;45790;51.538;6.736;2023-04-03T04:43:36;3.45;;;1.42;;
59930;SDS011;45790;51.538;6.736;2023-04-03T04:46:05;7.97;;;2.20;;
59930;SDS011;45790;51.538;6.736;2023-04-03T04:48:31;6.70;;;1.80;;
59930;SDS011;45790;51.538;6.736;2023-04-03T04:50:56;8.57;;;1.75;;
59930;SDS011;45790;51.538;6.736;2023-04-03T04:53:21;7.57;;;2.42;;
59930;SDS011;45790;51.538;6.736;2023-04-03T04:55:47;7.07;;;1.70;;
59930;SDS011;45790;51.538;6.736;2023-04-03T04:58:12;8.60;;;1.90;;
59930;SDS011;45790;51.538;6.736;2023-04-03T05:00:38;6.47;;;1.60;;
59930;SDS011;45790;51.538;6.736;2023-04-03T05:03:03;7.38;;;1.85;;
59930;SDS011;45790;51.538;6.736;2023-04-03T05:05:28;4.75;;;1.65;;
59930;SDS011;45790;51.538;6.736;2023-04-03T05:07:53;5.93;;;1.52;;
59930;SDS011;45790;51.538;6.736;2023-04-03T05:10:18;5.93;;;1.77;;
59930;SDS011;45790;51.538;6.736;2023-04-03T05:12:44;6.57;;;2.00;;
59930;SDS011;45790;51.538;6.736;2023-04-03T05:15:09;10.52;;;1.80;;
59930;SDS011;45790;51.538;6.736;2023-04-03T05:17:34;5.45;;;1.73;;
59930;SDS011;45790;51.538;6.736;2023-04-03T05:19:59;10.45;;;1.70;;
59930;SDS011;45790;51.538;6.736;2023-04-03T05:22:25;7.47;;;1.90;;
59930;SDS011;45790;51.538;6.736;2023-04-03T05:24:50;6.25;;;1.70;;
59930;SDS011;45790;51.538;6.736;2023-04-03T05:27:15;5.50;;;1.70;;
59930;SDS011;45790;51.538;6.736;2023-04-03T05:29:41;9.18;;;1.75;;
59930;SDS011;45790;51.538;6.736;2023-04-03T05:32:08;7.05;;;1.73;;
59930;SDS011;45790;51.538;6.736;2023-04-03T05:34:33;7.82;;;2.03;;
59930;SDS011;45790;51.538;6.736;2023-04-03T05:36:58;6.55;;;1.77;;
59930;SDS011;45790;51.538;6.736;2023-04-03T05:39:24;6.35;;;1.60;;
59930;SDS011;45790;51.538;6.736;2023-04-03T05:41:49;7.25;;;1.60;;
59930;SDS011;45790;51.538;6.736;2023-04-03T05:44:14;5.65;;;1.80;;
59930;SDS011;45790;51.538;6.736;2023-04-03T05:46:40;3.92;;;2.08;;
59930;SDS011;45790;51.538;6.736;2023-04-03T05:49:05;6.10;;;2.10;;
59930;SDS011;45790;51.538;6.736;2023-04-03T05:51:32;6.75;;;2.00;;
59930;SDS011;45790;51.538;6.736;2023-04-03T05:54:40;10.52;;;2.40;;
59930;SDS011;45790;51.538;6.736;2023-04-03T05:56:48;8.93;;;2.15;;
59930;SDS011;45790;51.538;6.736;2023-04-03T05:59:13;6.55;;;1.75;;
59930;SDS011;45790;51.538;6.736;2023-04-03T06:01:38;15.55;;;2.00;;
59930;SDS011;45790;51.538;6.736;2023-04-03T06:04:03;6.35;;;2.13;;
59930;SDS011;45790;51.538;6.736;2023-04-03T06:06:48;8.07;;;1.60;;
59930;SDS011;45790;51.538;6.736;2023-04-03T06:09:14;7.18;;;1.92;;
59930;SDS011;45790;51.538;6.736;2023-04-03T06:11:40;5.13;;;1.83;;
59930;SDS011;45790;51.538;6.736;2023-04-03T06:14:07;7.47;;;2.38;;
59930;SDS011;45790;51.538;6.736;2023-04-03T06:16:32;7.28;;;2.00;;
59930;SDS011;45790;51.538;6.736;2023-04-03T06:18:58;5.20;;;1.73;;
59930;SDS011;45790;51.538;6.736;2023-04-03T06:21:23;4.90;;;2.25;;
59930;SDS011;45790;51.538;6.736;2023-04-03T06:23:48;5.97;;;1.90;;
59930;SDS011;45790;51.538;6.736;2023-04-03T06:26:14;5.57;;;1.90;;
59930;SDS011;45790;51.538;6.736;2023-04-03T06:28:39;4.18;;;2.13;;
59930;SDS011;45790;51.538;6.736;2023-04-03T06:31:04;7.47;;;2.30;;
59930;SDS011;45790;51.538;6.736;2023-04-03T06:33:30;6.63;;;2.10;;
59930;SDS011;45790;51.538;6.736;2023-04-03T06:35:56;4.40;;;1.63;;
59930;SDS011;45790;51.538;6.736;2023-04-03T06:38:21;5.60;;;1.90;;
59930;SDS011;45790;51.538;6.736;2023-04-03T06:40:47;4.00;;;1.70;;
59930;SDS011;45790;51.538;6.736;2023-04-03T06:43:12;7.95;;;2.50;;
59930;SDS011;45790;51.538;6.736;2023-04-03T06:45:37;7.25;;;1.67;;
59930;SDS011;45790;51.538;6.736;2023-04-03T06:48:02;8.10;;;2.45;;
59930;SDS011;45790;51.538;6.736;2023-04-03T06:50:27;6.47;;;2.05;;
59930;SDS011;45790;51.538;6.736;2023-04-03T06:52:53;4.38;;;1.70;;
59930;SDS011;45790;51.538;6.736;2023-04-03T06:55:18;8.10;;;2.28;;
59930;SDS011;45790;51.538;6.736;2023-04-03T06:57:43;5.68;;;1.85;;
59930;SDS011;45790;51.538;6.736;2023-04-03T07:00:08;12.95;;;2.03;;
59930;SDS011;45790;51.538;6.736;2023-04-03T07:02:34;5.05;;;1.50;;
59930;SDS011;45790;51.538;6.736;2023-04-03T07:05:00;4.50;;;2.00;;
59930;SDS011;45790;51.538;6.736;2023-04-03T07:07:25;5.38;;;1.70;;
59930;SDS011;45790;51.538;6.736;2023-04-03T07:09:50;5.88;;;1.50;;
59930;SDS011;45790;51.538;6.736;2023-04-03T07:12:16;8.40;;;2.92;;
59930;SDS011;45790;51.538;6.736;2023-04-03T07:14:41;5.78;;;1.77;;
59930;SDS011;45790;51.538;6.736;2023-04-03T07:17:07;5.90;;;1.65;;
59930;SDS011;45790;51.538;6.736;2023-04-03T07:19:32;7.15;;;1.60;;
59930;SDS011;45790;51.538;6.736;2023-04-03T07:21:57;5.10;;;1.40;;
59930;SDS011;45790;51.538;6.736;2023-04-03T07:24:23;6.30;;;1.50;;
59930;SDS011;45790;51.538;6.736;2023-04-03T07:26:51;4.85;;;1.73;;
59930;SDS011;45790;51.538;6.736;2023-04-03T07:29:16;6.13;;;1.70;;
59930;SDS011;45790;51.538;6.736;2023-04-03T07:31:42;5.03;;;1.50;;
59930;SDS011;45790;51.538;6.736;2023-04-03T07:34:07;4.40;;;1.60;;
59930;SDS011;45790;51.538;6.736;2023-04-03T07:36:32;5.90;;;1.50;;
59930;SDS011;45790;51.538;6.736;2023-04-03T07:38:58;7.45;;;1.60;;
59930;SDS011;45790;51.538;6.736;2023-04-03T07:41:23;4.03;;;1.60;;
59930;SDS011;45790;51.538;6.736;2023-04-03T07:43:49;6.22;;;2.13;;
59930;SDS011;45790;51.538;6.736;2023-04-03T07:46:14;5.38;;;1.35;;
59930;SDS011;45790;51.538;6.736;2023-04-03T07:48:40;8.85;;;2.78;;
59930;SDS011;45790;51.538;6.736;2023-04-03T07:51:05;8.32;;;1.70;;
59930;SDS011;45790;51.538;6.736;2023-04-03T07:53:31;6.15;;;1.65;;
59930;SDS011;45790;51.538;6.736;2023-04-03T07:55:56;5.53;;;1.70;;
59930;SDS011;45790;51.538;6.736;2023-04-03T07:58:22;4.53;;;1.50;;
59930;SDS011;45790;51.538;6.736;2023-04-03T08:00:47;5.13;;;1.77;;
59930;SDS011;45790;51.538;6.736;2023-04-03T08:03:13;5.47;;;1.35;;
59930;SDS011;45790;51.538;6.736;2023-04-03T08:05:39;6.30;;;1.42;;
59930;SDS011;45790;51.538;6.736;2023-04-03T08:08:06;5.60;;;1.58;;
59930;SDS011;45790;51.538;6.736;2023-04-03T08:10:31;5.93;;;1.83;;
59930;SDS011;45790;51.538;6.736;2023-04-03T08:12:57;8.88;;;2.05;;
59930;SDS011;45790;51.538;6.736;2023-04-03T08:15:22;6.13;;;1.90;;
59930;SDS011;45790;51.538;6.736;2023-04-03T08:17:47;3.45;;;1.20;;
59930;SDS011;45790;51.538;6.736;2023-04-03T08:20:12;6.32;;;1.55;;
59930;SDS011;45790;51.538;6.736;2023-04-03T08:22:38;4.00;;;1.30;;
59930;SDS011;45790;51.538;6.736;2023-04-03T08:25:03;5.15;;;1.60;;
59930;SDS011;45790;51.538;6.736;2023-04-03T08:27:28;6.65;;;1.50;;
59930;SDS011;45790;51.538;6.736;2023-04-03T08:29:54;6.47;;;1.50;;
59930;SDS011;45790;51.538;6.736;2023-04-03T08:32:19;4.95;;;1.35;;
59930;SDS011;45790;51.538;6.736;2023-04-03T08:34:45;3.78;;;1.38;;
59930;SDS011;45790;51.538;6.736;2023-04-03T08:37:11;6.28;;;1.48;;
59930;SDS011;45790;51.538;6.736;2023-04-03T08:39:36;2.78;;;1.25;;
59930;SDS011;45790;51.538;6.736;2023-04-03T08:42:03;3.78;;;1.33;;
59930;SDS011;45790;51.538;6.736;2023-04-03T08:49:45;3.15;;;1.27;;
59930;SDS011;45790;51.538;6.736;2023-04-03T08:52:32;4.50;;;1.55;;
59930;SDS011;45790;51.538;6.736;2023-04-03T08:55:04;4.97;;;1.30;;
59930;SDS011;45790;51.538;6.736;2023-04-03T08:59:55;2.38;;;0.93;;
59930;SDS011;45790;51.538;6.736;2023-04-03T09:02:30;4.80;;;1.20;;
59930;SDS011;45790;51.538;6.736;2023-04-03T09:04:57;6.70;;;1.42;;
59930;SDS011;45790;51.538;6.736;2023-04-03T09:07:26;4.07;;;1.05;;
59930;SDS011;45790;51.538;6.736;2023-04-03T09:09:56;3.50;;;1.05;;
59930;SDS011;45790;51.538;6.736;2023-04-03T09:12:34;4.35;;;1.30;;
59930;SDS011;45790;51.538;6.736;2023-04-03T09:24:59;3.47;;;1.10;;
59930;SDS011;45790;51.538;6.736;2023-04-03T09:27:26;3.15;;;1.05;;
59930;SDS011;45790;51.538;6.736;2023-04-03T09:29:53;2.53;;;1.00;;
59930;SDS011;45790;51.538;6.736;2023-04-03T09:32:21;2.85;;;0.93;;
59930;SDS011;45790;51.538;6.736;2023-04-03T09:34:47;3.75;;;0.90;;
59930;SDS011;45790;51.538;6.736;2023-04-03T09:37:12;4.65;;;1.20;;
59930;SDS011;45790;51.538;6.736;2023-04-03T09:39:57;3.92;;;0.80;;
59930;SDS011;45790;51.538;6.736;2023-04-03T09:42:23;3.88;;;1.10;;
59930;SDS011;45790;51.538;6.736;2023-04-03T09:44:54;4.07;;;1.20;;
59930;SDS011;45790;51.538;6.736;2023-04-03T09:49:56;2.83;;;1.10;;
59930;SDS011;45790;51.538;6.736;2023-04-03T09:52:34;4.25;;;0.90;;
59930;SDS011;45790;51.538;6.736;2023-04-03T09:55:06;1.58;;;0.90;;
59930;SDS011;45790;51.538;6.736;2023-04-03T09:57:32;2.83;;;0.90;;
59930;SDS011;45790;51.538;6.736;2023-04-03T09:59:58;3.05;;;1.13;;
59930;SDS011;45790;51.538;6.736;2023-04-03T10:02:32;2.97;;;1.10;;
59930;SDS011;45790;51.538;6.736;2023-04-03T10:04:58;2.78;;;0.90;;
59930;SDS011;45790;51.538;6.736;2023-04-03T10:07:34;5.13;;;1.25;;
59930;SDS011;45790;51.538;6.736;2023-04-03T10:10:17;4.57;;;1.17;;
59930;SDS011;45790;51.538;6.736;2023-04-03T10:12:43;2.30;;;0.75;;
59930;SDS011;45790;51.538;6.736;2023-04-03T10:15:15;5.07;;;1.13;;
59930;SDS011;45790;51.538;6.736;2023-04-03T10:22:42;4.07;;;0.88;;
59930;SDS011;45790;51.538;6.736;2023-04-03T10:32:45;2.60;;;0.82;;
59930;SDS011;45790;51.538;6.736;2023-04-03T10:38:08;3.70;;;0.70;;
59930;SDS011;45790;51.538;6.736;2023-04-03T10:40:37;3.50;;;0.95;;
59930;SDS011;45790;51.538;6.736;2023-04-03T10:56:08;2.35;;;0.82;;
59930;SDS011;45790;51.538;6.736;2023-04-03T10:58:37;6.30;;;1.00;;
59930;SDS011;45790;51.538;6.736;2023-04-03T11:01:08;3.30;;;1.42;;
59930;SDS011;45790;51.538;6.736;2023-04-03T11:03:44;5.78;;;1.00;;
59930;SDS011;45790;51.538;6.736;2023-04-03T11:06:13;3.55;;;1.02;;
59930;SDS011;45790;51.538;6.736;2023-04-03T11:08:44;2.70;;;0.88;;
59930;SDS011;45790;51.538;6.736;2023-04-03T11:11:15;2.30;;;0.80;;
59930;SDS011;45790;51.538;6.736;2023-04-03T11:13:43;3.00;;;0.77;;
59930;SDS011;45790;51.538;6.736;2023-04-03T11:16:09;2.13;;;0.98;;
59930;SDS011;45790;51.538;6.736;2023-04-03T11:18:41;3.08;;;1.02;;
59930;SDS011;45790;51.538;6.736;2023-04-03T11:21:51;2.60;;;0.85;;
59930;SDS011;45790;51.538;6.736;2023-04-03T11:23:56;1.60;;;0.82;;
59930;SDS011;45790;51.538;6.736;2023-04-03T11:26:24;3.22;;;1.13;;
59930;SDS011;45790;51.538;6.736;2023-04-03T11:29:01;3.78;;;1.00;;
59930;SDS011;45790;51.538;6.736;2023-04-03T11:31:38;2.75;;;0.98;;
59930;SDS011;45790;51.538;6.736;2023-04-03T11:36:52;4.43;;;1.02;;
59930;SDS011;45790;51.538;6.736;2023-04-03T11:41:44;3.30;;;1.00;;
59930;SDS011;45790;51.538;6.736;2023-04-03T11:46:55;3.83;;;1.13;;
59930;SDS011;45790;51.538;6.736;2023-04-03T11:52:07;5.35;;;1.20;;
59930;SDS011;45790;51.538;6.736;2023-04-03T11:54:35;3.92;;;1.17;;
59930;SDS011;45790;51.538;6.736;2023-04-03T11:57:13;3.03;;;1.13;;
59930;SDS011;45790;51.538;6.736;2023-04-03T11:59:45;4.47;;;1.10;;
59930;SDS011;45790;51.538;6.736;2023-04-03T12:02:44;5.97;;;1.03;;
59930;SDS011;45790;51.538;6.736;2023-04-03T12:05:24;3.70;;;1.10;;
59930;SDS011;45790;51.538;6.736;2023-04-03T12:10:34;3.10;;;0.95;;
59930;SDS011;45790;51.538;6.736;2023-04-03T12:13:00;1.95;;;1.02;;
59930;SDS011;45790;51.538;6.736;2023-04-03T12:18:31;3.05;;;1.00;;
59930;SDS011;45790;51.538;6.736;2023-04-03T12:20:54;1.77;;;0.90;;
59930;SDS011;45790;51.538;6.736;2023-04-03T12:23:30;2.55;;;0.93;;
59930;SDS011;45790;51.538;6.736;2023-04-03T12:28:40;2.17;;;1.10;;
59930;SDS011;45790;51.538;6.736;2023-04-03T12:31:06;3.40;;;0.95;;
59930;SDS011;45790;51.538;6.736;2023-04-03T12:33:46;2.95;;;0.90;;
59930;SDS011;45790;51.538;6.736;2023-04-03T12:36:26;7.28;;;1.23;;
59930;SDS011;45790;51.538;6.736;2023-04-03T12:41:21;6.20;;;1.30;;
59930;SDS011;45790;51.538;6.736;2023-04-03T12:46:33;3.60;;;1.10;;
59930;SDS011;45790;51.538;6.736;2023-04-03T12:49:00;2.78;;;1.00;;
59930;SDS011;45790;51.538;6.736;2023-04-03T12:51:39;2.42;;;0.95;;
59930;SDS011;45790;51.538;6.736;2023-04-03T12:56:40;2.45;;;1.00;;
59930;SDS011;45790;51.538;6.736;2023-04-03T12:59:24;3.35;;;0.90;;
59930;SDS011;45790;51.538;6.736;2023-04-03T13:01:54;2.22;;;0.88;;
59930;SDS011;45790;51.538;6.736;2023-04-03T13:04:20;2.85;;;1.10;;
59930;SDS011;45790;51.538;6.736;2023-04-03T13:06:45;3.25;;;1.00;;
59930;SDS011;45790;51.538;6.736;2023-04-03T13:11:46;2.97;;;1.25;;
59930;SDS011;45790;51.538;6.736;2023-04-03T13:14:17;3.42;;;1.30;;
59930;SDS011;45790;51.538;6.736;2023-04-03T13:16:52;2.90;;;1.10;;
59930;SDS011;45790;51.538;6.736;2023-04-03T13:19:17;4.63;;;1.35;;
59930;SDS011;45790;51.538;6.736;2023-04-03T13:21:42;1.80;;;1.00;;
59930;SDS011;45790;51.538;6.736;2023-04-03T13:24:09;4.30;;;1.15;;
59930;SDS011;45790;51.538;6.736;2023-04-03T13:26:34;2.58;;;1.08;;
59930;SDS011;45790;51.538;6.736;2023-04-03T13:29:07;5.88;;;1.13;;
59930;SDS011;45790;51.538;6.736;2023-04-03T13:31:34;2.85;;;1.15;;
59930;SDS011;45790;51.538;6.736;2023-04-03T13:36:35;2.17;;;1.05;;
59930;SDS011;45790;51.538;6.736;2023-04-03T13:39:02;2.28;;;1.10;;
59930;SDS011;45790;51.538;6.736;2023-04-03T13:41:35;4.22;;;1.10;;
59930;SDS011;45790;51.538;6.736;2023-04-03T13:46:45;2.50;;;1.02;;
59930;SDS011;45790;51.538;6.736;2023-04-03T13:51:45;2.70;;;0.90;;
59930;SDS011;45790;51.538;6.736;2023-04-03T13:54:16;3.35;;;1.30;;
59930;SDS011;45790;51.538;6.736;2023-04-03T13:56:42;3.00;;;0.98;;
59930;SDS011;45790;51.538;6.736;2023-04-03T14:01:43;7.65;;;1.10;;
59930;SDS011;45790;51.538;6.736;2023-04-03T14:04:14;3.55;;;1.17;;
59930;SDS011;45790;51.538;6.736;2023-04-03T14:06:40;4.57;;;1.10;;
59930;SDS011;45790;51.538;6.736;2023-04-03T14:09:05;2.72;;;0.90;;
59930;SDS011;45790;51.538;6.736;2023-04-03T14:11:33;1.97;;;0.80;;
59930;SDS011;45790;51.538;6.736;2023-04-03T14:14:00;4.95;;;1.10;;
59930;SDS011;45790;51.538;6.736;2023-04-03T14:16:27;3.05;;;0.77;;
59930;SDS011;45790;51.538;6.736;2023-04-03T14:18:53;2.53;;;0.90;;
59930;SDS011;45790;51.538;6.736;2023-04-03T14:21:19;2.50;;;1.02;;
59930;SDS011;45790;51.538;6.736;2023-04-03T14:23:44;3.55;;;0.90;;
59930;SDS011;45790;51.538;6.736;2023-04-03T14:26:12;2.92;;;1.00;;
59930;SDS011;45790;51.538;6.736;2023-04-03T14:28:37;2.85;;;1.20;;
59930;SDS011;45790;51.538;6.736;2023-04-03T14:31:05;4.43;;;1.00;;
59930;SDS011;45790;51.538;6.736;2023-04-03T14:33:30;3.45;;;0.90;;
59930;SDS011;45790;51.538;6.736;2023-04-03T14:35:59;5.28;;;1.30;;
59930;SDS011;45790;51.538;6.736;2023-04-03T14:38:25;4.03;;;1.27;;
59930;SDS011;45790;51.538;6.736;2023-04-03T14:40:51;4.03;;;1.15;;
59930;SDS011;45790;51.538;6.736;2023-04-03T14:43:16;3.67;;;1.10;;
59930;SDS011;45790;51.538;6.736;2023-04-03T14:45:42;4.07;;;1.20;;
59930;SDS011;45790;51.538;6.736;2023-04-03T14:48:09;3.42;;;1.00;;
59930;SDS011;45790;51.538;6.736;2023-04-03T14:50:36;4.15;;;1.10;;
59930;SDS011;45790;51.538;6.736;2023-04-03T14:53:01;2.88;;;1.00;;
59930;SDS011;45790;51.538;6.736;2023-04-03T14:55:26;3.67;;;1.10;;
59930;SDS011;45790;51.538;6.736;2023-04-03T14:57:52;4.45;;;1.25;;
59930;SDS011;45790;51.538;6.736;2023-04-03T15:00:18;5.32;;;0.95;;
59930;SDS011;45790;51.538;6.736;2023-04-03T15:02:44;2.97;;;0.77;;
59930;SDS011;45790;51.538;6.736;2023-04-03T15:05:11;3.92;;;1.17;;
59930;SDS011;45790;51.538;6.736;2023-04-03T15:07:37;2.53;;;1.20;;
59930;SDS011;45790;51.538;6.736;2023-04-03T15:10:09;4.72;;;1.05;;
59930;SDS011;45790;51.538;6.736;2023-04-03T15:12:38;4.13;;;1.20;;
59930;SDS011;45790;51.538;6.736;2023-04-03T15:15:03;3.70;;;1.17;;
59930;SDS011;45790;51.538;6.736;2023-04-03T15:17:29;7.20;;;1.10;;
59930;SDS011;45790;51.538;6.736;2023-04-03T15:19:54;3.10;;;0.97;;
59930;SDS011;45790;51.538;6.736;2023-04-03T15:22:19;2.47;;;1.10;;
59930;SDS011;45790;51.538;6.736;2023-04-03T15:24:45;5.88;;;1.10;;
59930;SDS011;45790;51.538;6.736;2023-04-03T15:27:11;3.60;;;1.00;;
59930;SDS011;45790;51.538;6.736;2023-04-03T15:29:37;4.15;;;1.27;;
59930;SDS011;45790;51.538;6.736;2023-04-03T15:32:03;4.03;;;0.93;;
59930;SDS011;45790;51.538;6.736;2023-04-03T15:34:28;3.60;;;0.95;;
59930;SDS011;45790;51.538;6.736;2023-04-03T15:36:53;3.92;;;1.45;;
59930;SDS011;45790;51.538;6.736;2023-04-03T15:39:19;5.75;;;1.50;;
59930;SDS011;45790;51.538;6.736;2023-04-03T15:41:45;5.18;;;1.40;;
59930;SDS011;45790;51.538;6.736;2023-04-03T15:44:10;2.63;;;1.02;;
59930;SDS011;45790;51.538;6.736;2023-04-03T15:46:37;4.93;;;1.33;;
59930;SDS011;45790;51.538;6.736;2023-04-03T15:49:02;4.25;;;1.13;;
59930;SDS011;45790;51.538;6.736;2023-04-03T15:51:27;6.70;;;1.20;;
59930;SDS011;45790;51.538;6.736;2023-04-03T15:53:52;3.70;;;1.20;;
59930;SDS011;45790;51.538;6.736;2023-04-03T15:56:18;3.35;;;1.13;;
59930;SDS011;45790;51.538;6.736;2023-04-03T15:58:43;4.07;;;0.95;;
59930;SDS011;45790;51.538;6.736;2023-04-03T16:01:09;4.28;;;1.20;;
59930;SDS011;45790;51.538;6.736;2023-04-03T16:03:34;2.97;;;1.00;;
59930;SDS011;45790;51.538;6.736;2023-04-03T16:06:00;2.58;;;1.15;;
59930;SDS011;45790;51.538;6.736;2023-04-03T16:08:26;6.80;;;1.40;;
59930;SDS011;45790;51.538;6.736;2023-04-03T16:10:51;5.35;;;1.40;;
59930;SDS011;45790;51.538;6.736;2023-04-03T16:13:17;4.53;;;1.23;;
59930;SDS011;45790;51.538;6.736;2023-04-03T16:15:42;3.53;;;1.02;;
59930;SDS011;45790;51.538;6.736;2023-04-03T16:18:08;4.28;;;1.33;;
59930;SDS011;45790;51.538;6.736;2023-04-03T16:20:34;4.65;;;1.23;;
59930;SDS011;45790;51.538;6.736;2023-04-03T16:22:59;4.38;;;1.23;;